KYKN/YKN METAR and TAF weather

Enter ICAO airport designator
Station Type Date Time Source
KYKN METAR 2022/11/30 09:56 UTC NOAA

KYKN 300956Z AUTO 28014KT 10SM CLR M09/M14 A3014 RMK AO2 SLP241 T10941144 FZRANO


Station Type Date Time Source
KYKN Decoded METAR 2022/11/30 09:56 UTC NOAA

Yankton, Chan Gurney Municipal Airport, SD, United States (KYKN) 42-55N 097-23W
Nov 30, 2022 - 04:56 AM EST / 2022.11.30 0956 UTC
Wind: from the W (280 degrees) at 16 MPH (14 KT):0
Visibility: 10 mile(s):0
Sky conditions: clear
Temperature: 15.1 F (-9.4 C)
Windchill: 0 F (-18 C):1
Dew Point: 6.1 F (-14.4 C)
Relative Humidity: 66%
Pressure (altimeter): 30.14 in. Hg (1020 hPa)
ob: KYKN 300956Z AUTO 28014KT 10SM CLR M09/M14 A3014 RMK AO2 SLP241 T10941144 FZRANO
cycle: 10

Station Type Date Time Source
KYKN TAF UTC NOAA

Error!

Example: see airport list